createdAt,value
2018-08-03T00:00:09.462Z,25.63
2018-08-03T00:01:09.466Z,25.54
2018-08-03T00:02:09.465Z,25.51
2018-08-03T00:03:09.463Z,25.59
2018-08-03T00:04:09.469Z,25.59
2018-08-03T00:05:09.464Z,25.59
2018-08-03T00:06:09.468Z,25.62
2018-08-03T00:07:09.461Z,25.51
2018-08-03T00:08:09.473Z,25.51
2018-08-03T00:09:09.465Z,25.51
2018-08-03T00:10:09.463Z,25.48
2018-08-03T00:11:09.469Z,25.47
2018-08-03T00:12:09.475Z,25.51
2018-08-03T00:13:09.474Z,25.38
2018-08-03T00:14:09.501Z,25.35
2018-08-03T00:15:09.470Z,25.43
2018-08-03T00:16:09.474Z,25.43
2018-08-03T00:17:09.482Z,25.35
2018-08-03T00:18:09.478Z,25.33
2018-08-03T00:19:09.473Z,25.36
2018-08-03T00:20:09.489Z,25.23
2018-08-03T00:21:09.471Z,25.25
2018-08-03T00:22:09.472Z,25.33
2018-08-03T00:23:09.473Z,25.35
2018-08-03T00:24:09.472Z,25.29
2018-08-03T00:25:09.472Z,25.28
2018-08-03T00:26:09.473Z,25.33
2018-08-03T00:27:09.470Z,25.31
2018-08-03T00:28:09.477Z,25.35
2018-08-03T00:29:09.474Z,25.41
2018-08-03T00:30:09.473Z,25.26
2018-08-03T00:31:09.480Z,25.32
2018-08-03T00:32:09.474Z,25.31
2018-08-03T00:33:09.474Z,25.29
2018-08-03T00:34:09.482Z,25.29
2018-08-03T00:35:09.478Z,25.32
2018-08-03T00:36:09.470Z,25.29
2018-08-03T00:37:09.475Z,25.33
2018-08-03T00:38:09.478Z,25.28
2018-08-03T00:39:09.480Z,25.29
2018-08-03T00:40:09.478Z,25.25
2018-08-03T00:41:09.475Z,25.18
2018-08-03T00:42:09.475Z,25.31
2018-08-03T00:43:09.478Z,25.21
2018-08-03T00:44:09.478Z,25.21
2018-08-03T00:45:09.479Z,25.18
2018-08-03T00:46:09.491Z,25.22
2018-08-03T00:47:09.483Z,25.18
2018-08-03T00:48:09.480Z,25.14
2018-08-03T00:49:09.479Z,25.16
2018-08-03T00:50:09.478Z,25.03
2018-08-03T00:51:09.484Z,25.07
2018-08-03T00:52:09.480Z,24.99
2018-08-03T00:53:09.484Z,24.96
2018-08-03T00:54:09.479Z,24.98
2018-08-03T00:55:09.481Z,24.95
2018-08-03T00:56:09.480Z,24.95
2018-08-03T00:57:09.481Z,24.88
2018-08-03T00:58:09.484Z,24.84
2018-08-03T00:59:09.485Z,24.84
2018-08-03T01:00:09.485Z,24.85
2018-08-03T01:01:09.501Z,24.80
2018-08-03T01:02:09.484Z,24.80
2018-08-03T01:03:09.487Z,24.76
2018-08-03T01:04:09.499Z,24.68
2018-08-03T01:05:09.486Z,24.80
2018-08-03T01:06:09.489Z,24.65
2018-08-03T01:07:09.487Z,24.61
2018-08-03T01:08:09.485Z,24.63
2018-08-03T01:09:09.488Z,24.66
2018-08-03T01:10:09.488Z,24.68
2018-08-03T01:11:09.492Z,24.65
2018-08-03T01:12:09.485Z,24.61
2018-08-03T01:13:09.482Z,24.61
2018-08-03T01:14:09.486Z,24.55
2018-08-03T01:15:09.491Z,24.58
2018-08-03T01:16:09.483Z,24.54
2018-08-03T01:17:09.485Z,24.51
2018-08-03T01:18:09.486Z,24.51
2018-08-03T01:19:09.487Z,24.48
2018-08-03T01:20:09.501Z,24.54
2018-08-03T01:21:09.488Z,24.47
2018-08-03T01:22:09.501Z,24.42
2018-08-03T01:23:09.487Z,24.43
2018-08-03T01:24:09.487Z,24.47
2018-08-03T01:25:09.489Z,24.43
2018-08-03T01:26:09.489Z,24.47
2018-08-03T01:27:09.487Z,24.54
2018-08-03T01:28:09.487Z,24.47
2018-08-03T01:29:09.495Z,24.51
2018-08-03T01:30:09.490Z,24.54
2018-08-03T01:31:09.487Z,24.42
2018-08-03T01:32:09.491Z,24.45
2018-08-03T01:33:09.493Z,24.40
2018-08-03T01:34:09.507Z,24.43
2018-08-03T01:35:09.491Z,24.32
2018-08-03T01:36:09.486Z,24.35
2018-08-03T01:37:09.490Z,24.35
2018-08-03T01:38:09.494Z,24.36
2018-08-03T01:39:09.497Z,24.28
2018-08-03T01:40:09.489Z,24.20
2018-08-03T01:41:09.503Z,24.23
2018-08-03T01:42:09.488Z,24.23
2018-08-03T01:43:09.487Z,24.20
2018-08-03T01:44:09.487Z,24.23
2018-08-03T01:45:09.490Z,24.20
2018-08-03T01:46:09.491Z,24.26
2018-08-03T01:47:09.488Z,24.20
2018-08-03T01:48:09.487Z,24.10
2018-08-03T01:49:09.491Z,24.08
2018-08-03T01:50:09.495Z,24.21
2018-08-03T01:51:09.489Z,24.13
2018-08-03T01:52:09.497Z,24.16
2018-08-03T01:53:09.503Z,24.08
2018-08-03T01:54:09.488Z,24.14
2018-08-03T01:55:09.489Z,24.11
2018-08-03T01:56:09.492Z,24.03
2018-08-03T01:57:09.488Z,24.03
2018-08-03T01:58:09.492Z,24.08
2018-08-03T01:59:09.512Z,24.08
2018-08-03T02:00:09.488Z,24.10
2018-08-03T02:01:09.490Z,24.06
2018-08-03T02:02:09.485Z,24.01
2018-08-03T02:03:09.539Z,23.93
2018-08-03T02:04:09.496Z,23.91
2018-08-03T02:05:09.520Z,23.81
2018-08-03T02:06:09.487Z,23.71
2018-08-03T02:07:09.493Z,23.78
2018-08-03T02:08:09.489Z,23.78
2018-08-03T02:09:09.493Z,23.80
2018-08-03T02:10:09.488Z,23.76
2018-08-03T02:11:09.488Z,23.76
2018-08-03T02:12:09.492Z,23.77
2018-08-03T02:13:09.487Z,23.80
2018-08-03T02:14:09.484Z,23.83
2018-08-03T02:15:09.494Z,23.80
2018-08-03T02:16:09.487Z,23.77
2018-08-03T02:17:09.484Z,23.77
2018-08-03T02:18:09.490Z,23.76
2018-08-03T02:19:09.487Z,23.65
2018-08-03T02:20:09.487Z,23.66
2018-08-03T02:21:09.508Z,23.59
2018-08-03T02:22:09.488Z,23.58
2018-08-03T02:23:09.494Z,23.65
2018-08-03T02:24:09.486Z,23.59
2018-08-03T02:25:09.486Z,23.61
2018-08-03T02:26:09.485Z,23.62
2018-08-03T02:27:09.490Z,23.69
2018-08-03T02:28:09.490Z,23.63
2018-08-03T02:29:09.482Z,23.61
2018-08-03T02:30:09.485Z,23.59
2018-08-03T02:31:09.493Z,23.51
2018-08-03T02:32:09.489Z,23.48
2018-08-03T02:33:09.483Z,23.61
2018-08-03T02:34:09.484Z,23.54
2018-08-03T02:35:09.483Z,23.46
2018-08-03T02:36:09.483Z,23.46
2018-08-03T02:37:09.486Z,23.44
2018-08-03T02:38:09.479Z,23.39
2018-08-03T02:39:09.483Z,23.48
2018-08-03T02:40:09.477Z,23.31
2018-08-03T02:41:09.481Z,23.39
2018-08-03T02:42:09.478Z,23.31
2018-08-03T02:43:09.476Z,23.41
2018-08-03T02:44:09.479Z,23.44
2018-08-03T02:45:09.478Z,23.32
2018-08-03T02:46:09.487Z,23.39
2018-08-03T02:47:09.486Z,23.37
2018-08-03T02:48:09.484Z,23.40
2018-08-03T02:49:09.482Z,23.34
2018-08-03T02:50:09.480Z,23.31
2018-08-03T02:51:09.477Z,23.36
2018-08-03T02:52:09.482Z,23.39
2018-08-03T02:53:09.478Z,23.36
2018-08-03T02:54:09.479Z,23.37
2018-08-03T02:55:09.479Z,23.37
2018-08-03T02:56:09.500Z,23.31
2018-08-03T02:57:09.482Z,23.28
2018-08-03T02:58:09.473Z,23.18
2018-08-03T02:59:09.479Z,23.25
2018-08-03T03:00:09.474Z,23.27
2018-08-03T03:01:09.475Z,23.21
2018-08-03T03:02:09.476Z,23.28
2018-08-03T03:03:09.481Z,23.31
2018-08-03T03:04:09.471Z,23.37
2018-08-03T03:05:09.479Z,23.34
2018-08-03T03:06:09.477Z,23.36
2018-08-03T03:07:09.474Z,23.39
2018-08-03T03:08:09.470Z,23.44
2018-08-03T03:09:09.479Z,23.40
2018-08-03T03:10:09.468Z,23.40
2018-08-03T03:11:09.466Z,23.40
2018-08-03T03:12:09.472Z,23.34
2018-08-03T03:13:09.469Z,23.37
2018-08-03T03:14:09.468Z,23.40
2018-08-03T03:15:09.475Z,23.34
2018-08-03T03:16:09.470Z,23.44
2018-08-03T03:17:09.492Z,23.43
2018-08-03T03:18:09.466Z,23.34
2018-08-03T03:19:09.468Z,23.32
2018-08-03T03:20:09.469Z,23.34
2018-08-03T03:21:09.470Z,23.34
2018-08-03T03:22:09.466Z,23.32
2018-08-03T03:23:09.468Z,23.23
2018-08-03T03:24:09.473Z,23.23
2018-08-03T03:25:09.467Z,23.24
2018-08-03T03:26:09.465Z,23.25
2018-08-03T03:27:09.464Z,23.20
2018-08-03T03:28:09.468Z,23.23
2018-08-03T03:29:09.465Z,23.24
2018-08-03T03:30:09.469Z,23.23
2018-08-03T03:31:09.475Z,23.25
2018-08-03T03:32:09.463Z,23.28
2018-08-03T03:33:09.480Z,23.23
2018-08-03T03:34:09.470Z,23.24
2018-08-03T03:35:09.460Z,23.23
2018-08-03T03:36:09.461Z,23.23
2018-08-03T03:37:09.461Z,23.09
2018-08-03T03:38:09.462Z,23.15
2018-08-03T03:39:09.455Z,23.08
2018-08-03T03:40:09.460Z,23.08
2018-08-03T03:41:09.457Z,23.09
2018-08-03T03:42:09.458Z,23.12
2018-08-03T03:43:09.458Z,23.10
2018-08-03T03:44:09.456Z,23.13
2018-08-03T03:45:09.456Z,23.08
2018-08-03T03:46:09.461Z,22.94
2018-08-03T03:47:09.455Z,23.05
2018-08-03T03:48:09.455Z,23.06
2018-08-03T03:49:09.456Z,23.09
2018-08-03T03:50:09.454Z,23.02
2018-08-03T03:51:09.523Z,23.06
2018-08-03T03:52:09.456Z,23.06
2018-08-03T03:53:09.452Z,23.03
2018-08-03T03:54:09.448Z,22.94
2018-08-03T03:55:09.453Z,23.00
2018-08-03T03:56:09.452Z,23.05
2018-08-03T03:57:09.454Z,23.09
2018-08-03T03:58:09.451Z,23.06
2018-08-03T03:59:09.484Z,22.87
2018-08-03T04:00:09.448Z,22.99
2018-08-03T04:01:09.455Z,22.98
2018-08-03T04:02:09.448Z,22.98
2018-08-03T04:03:09.462Z,22.91
2018-08-03T04:04:09.443Z,22.90
2018-08-03T04:05:09.443Z,22.94
2018-08-03T04:06:09.454Z,22.96
2018-08-03T04:07:09.450Z,22.83
2018-08-03T04:08:09.451Z,22.83
2018-08-03T04:09:09.440Z,22.81
2018-08-03T04:10:09.440Z,22.91
2018-08-03T04:11:09.443Z,22.87
2018-08-03T04:12:09.464Z,22.94
2018-08-03T04:13:09.457Z,22.83
2018-08-03T04:14:09.452Z,22.84
2018-08-03T04:15:09.442Z,22.78
2018-08-03T04:16:09.440Z,22.78
2018-08-03T04:17:09.443Z,22.83
2018-08-03T04:18:09.439Z,22.73
2018-08-03T04:19:09.440Z,22.72
2018-08-03T04:20:09.437Z,22.72
2018-08-03T04:21:09.442Z,22.76
2018-08-03T04:22:09.435Z,22.68
2018-08-03T04:23:09.431Z,22.65
2018-08-03T04:24:09.435Z,22.66
2018-08-03T04:25:09.435Z,22.68
2018-08-03T04:26:09.436Z,22.65
2018-08-03T04:27:09.438Z,22.69
2018-08-03T04:28:09.435Z,22.62
2018-08-03T04:29:09.435Z,22.60
2018-08-03T04:30:09.432Z,22.68
2018-08-03T04:31:09.436Z,22.60
2018-08-03T04:32:09.432Z,22.66
2018-08-03T04:33:09.432Z,22.55
2018-08-03T04:34:09.432Z,22.59
2018-08-03T04:35:09.428Z,22.62
2018-08-03T04:36:09.430Z,22.63
2018-08-03T04:37:09.430Z,22.63
2018-08-03T04:38:09.427Z,22.62
2018-08-03T04:39:09.428Z,22.55
2018-08-03T04:40:09.430Z,22.70
2018-08-03T04:41:09.424Z,22.59
2018-08-03T04:42:09.444Z,22.59
2018-08-03T04:43:09.428Z,22.70
2018-08-03T04:44:09.424Z,22.55
2018-08-03T04:45:09.443Z,22.57
2018-08-03T04:46:09.422Z,22.70
2018-08-03T04:47:09.426Z,22.69
2018-08-03T04:48:09.421Z,22.69
2018-08-03T04:49:09.418Z,22.69
2018-08-03T04:50:09.422Z,22.75
2018-08-03T04:51:09.429Z,22.75
2018-08-03T04:52:09.451Z,22.78
2018-08-03T04:53:09.418Z,22.81
2018-08-03T04:54:09.420Z,22.84
2018-08-03T04:55:09.415Z,22.87
2018-08-03T04:56:09.419Z,22.81
2018-08-03T04:57:09.414Z,22.81
2018-08-03T04:58:09.414Z,22.83
2018-08-03T04:59:09.431Z,22.87
2018-08-03T05:00:09.416Z,22.83
2018-08-03T05:01:09.418Z,22.80
2018-08-03T05:02:09.413Z,22.81
2018-08-03T05:03:09.416Z,22.93
2018-08-03T05:04:09.418Z,22.81
2018-08-03T05:05:09.407Z,22.84
2018-08-03T05:06:09.433Z,22.90
2018-08-03T05:07:09.413Z,22.83
2018-08-03T05:08:09.436Z,22.91
2018-08-03T05:09:09.411Z,22.88
2018-08-03T05:10:09.434Z,22.94
2018-08-03T05:11:09.407Z,23.02
2018-08-03T05:12:09.411Z,23.06
2018-08-03T05:13:09.411Z,23.12
2018-08-03T05:14:09.414Z,23.15
2018-08-03T05:15:09.414Z,23.23
2018-08-03T05:16:09.411Z,23.23
2018-08-03T05:17:09.413Z,23.24
2018-08-03T05:18:09.415Z,23.34
2018-08-03T05:19:09.421Z,23.37
2018-08-03T05:20:09.412Z,23.34
2018-08-03T05:21:09.415Z,23.43
2018-08-03T05:22:09.414Z,23.56
2018-08-03T05:23:09.415Z,23.58
2018-08-03T05:24:09.418Z,23.58
2018-08-03T05:25:09.418Z,23.65
2018-08-03T05:26:09.424Z,23.74
2018-08-03T05:27:09.423Z,23.80
2018-08-03T05:28:09.420Z,23.83
2018-08-03T05:29:09.419Z,23.87
2018-08-03T05:30:09.420Z,23.87
2018-08-03T05:31:09.422Z,23.93
2018-08-03T05:32:09.423Z,24.10
2018-08-03T05:33:09.425Z,24.17
2018-08-03T05:34:09.424Z,24.23
2018-08-03T05:35:09.429Z,24.29
2018-08-03T05:36:09.527Z,24.32
2018-08-03T05:37:09.431Z,24.33
2018-08-03T05:38:09.433Z,24.48
2018-08-03T05:39:09.431Z,24.48
2018-08-03T05:40:09.434Z,24.54
2018-08-03T05:41:09.439Z,24.55
2018-08-03T05:42:09.439Z,24.60
2018-08-03T05:43:09.443Z,24.66
2018-08-03T05:44:09.444Z,24.68
2018-08-03T05:45:09.445Z,24.78
2018-08-03T05:46:09.448Z,24.91
2018-08-03T05:47:09.454Z,24.91
2018-08-03T05:48:09.444Z,25.01
2018-08-03T05:49:09.453Z,24.95
2018-08-03T05:50:09.516Z,25.03
2018-08-03T05:51:09.455Z,24.99
2018-08-03T05:52:09.460Z,25.18
2018-08-03T05:53:09.462Z,25.11
2018-08-03T05:54:09.467Z,25.28
2018-08-03T05:55:09.479Z,25.32
2018-08-03T05:56:09.468Z,25.44
2018-08-03T05:57:09.473Z,25.54
2018-08-03T05:58:09.477Z,25.68
2018-08-03T05:59:09.477Z,25.80
2018-08-03T06:00:09.477Z,25.75
2018-08-03T06:01:09.481Z,25.85
2018-08-03T06:02:09.497Z,25.95
2018-08-03T06:03:09.487Z,26.10
2018-08-03T06:04:09.499Z,26.13
2018-08-03T06:05:09.496Z,26.21
2018-08-03T06:06:09.502Z,26.25
2018-08-03T06:07:09.504Z,26.25
2018-08-03T06:08:09.551Z,26.26
2018-08-03T06:09:09.515Z,26.37
2018-08-03T06:10:09.512Z,26.41
2018-08-03T06:11:09.520Z,26.45
2018-08-03T06:12:09.526Z,26.62
2018-08-03T06:13:09.526Z,26.60
2018-08-03T06:14:09.528Z,26.74
2018-08-03T06:15:09.533Z,26.93
2018-08-03T06:16:09.537Z,26.89
2018-08-03T06:17:09.542Z,26.97
2018-08-03T06:18:09.547Z,27.03
2018-08-03T06:19:09.551Z,27.17
2018-08-03T06:20:09.556Z,27.45
2018-08-03T06:21:09.557Z,27.58
2018-08-03T06:22:09.567Z,27.65
2018-08-03T06:23:09.565Z,27.68
2018-08-03T06:24:09.584Z,27.68
2018-08-03T06:25:09.572Z,27.52
2018-08-03T06:26:09.582Z,27.51
2018-08-03T06:27:09.581Z,27.40
2018-08-03T06:28:09.586Z,27.21
2018-08-03T06:29:09.589Z,27.07
2018-08-03T06:30:09.600Z,26.99
2018-08-03T06:31:09.604Z,26.95
2018-08-03T06:32:09.606Z,26.97
2018-08-03T06:33:09.611Z,26.95
2018-08-03T06:34:09.615Z,26.97
2018-08-03T06:35:09.617Z,26.96
2018-08-03T06:36:09.620Z,27.08
2018-08-03T06:37:09.621Z,27.15
2018-08-03T06:38:09.646Z,27.25
2018-08-03T06:39:09.629Z,27.45
2018-08-03T06:40:09.639Z,27.52
2018-08-03T06:41:09.640Z,27.65
2018-08-03T06:42:09.646Z,27.74
2018-08-03T06:43:09.647Z,27.95
2018-08-03T06:44:09.655Z,28.19
2018-08-03T06:45:09.659Z,28.32
2018-08-03T06:46:09.656Z,28.49
2018-08-03T06:47:09.668Z,28.52
2018-08-03T06:48:09.680Z,28.63
2018-08-03T06:49:09.676Z,28.57
2018-08-03T06:50:09.682Z,28.44
2018-08-03T06:51:09.688Z,28.49
2018-08-03T06:52:09.702Z,28.49
2018-08-03T06:53:09.716Z,28.60
2018-08-03T06:54:09.708Z,28.67
2018-08-03T06:55:10.089Z,28.81
2018-08-03T06:57:42.159Z,29.17
2018-08-03T06:58:42.127Z,29.10
2018-08-03T07:00:35.897Z,29.12
2018-08-03T07:01:35.889Z,29.31
2018-08-03T07:03:29.540Z,29.51
2018-08-03T07:04:29.501Z,29.49
2018-08-03T07:06:23.214Z,29.56
2018-08-03T07:07:23.144Z,29.59
2018-08-03T07:09:16.880Z,29.76
2018-08-03T07:10:16.842Z,29.95
2018-08-03T07:12:10.675Z,29.68
2018-08-03T07:13:10.639Z,29.76
2018-08-03T07:15:04.267Z,29.71
2018-08-03T07:16:04.263Z,29.71
2018-08-03T07:17:04.263Z,29.71
2018-08-03T07:18:04.271Z,29.76
2018-08-03T07:19:04.288Z,29.75
2018-08-03T07:20:04.356Z,29.78
2018-08-03T07:21:04.287Z,29.73
2018-08-03T07:22:04.297Z,29.73
2018-08-03T07:23:04.299Z,29.73
2018-08-03T07:24:04.307Z,29.78
2018-08-03T07:25:04.312Z,29.95
2018-08-03T07:26:04.319Z,30.50
2018-08-03T07:27:04.352Z,30.73
2018-08-03T07:28:04.364Z,30.92
2018-08-03T07:29:04.342Z,31.21
2018-08-03T07:30:06.103Z,31.34
2018-08-03T07:31:04.350Z,31.37
2018-08-03T07:32:04.363Z,31.27
2018-08-03T07:33:04.365Z,31.29
2018-08-03T07:34:04.365Z,31.17
2018-08-03T07:35:04.378Z,31.21
2018-08-03T07:36:04.383Z,31.14
2018-08-03T07:37:04.390Z,31.14
2018-08-03T07:38:04.396Z,31.21
2018-08-03T07:39:04.404Z,31.20
2018-08-03T07:40:04.413Z,31.12
2018-08-03T07:41:04.448Z,31.22
2018-08-03T07:42:04.431Z,31.25
2018-08-03T07:43:04.516Z,31.25
2018-08-03T07:44:04.464Z,31.20
2018-08-03T07:45:04.476Z,31.14
2018-08-03T07:46:04.451Z,31.12
2018-08-03T07:47:04.459Z,31.15
2018-08-03T07:48:04.474Z,31.06
2018-08-03T07:49:04.474Z,31.15
2018-08-03T07:50:04.479Z,31.09
2018-08-03T07:51:04.489Z,31.09
2018-08-03T07:52:04.521Z,30.92
2018-08-03T07:53:04.500Z,30.84
2018-08-03T07:54:04.508Z,30.75
2018-08-03T07:55:04.515Z,30.66
2018-08-03T07:56:04.524Z,30.83
2018-08-03T07:57:04.532Z,30.92
2018-08-03T07:58:04.538Z,31.09
2018-08-03T07:59:04.556Z,31.29
2018-08-03T08:00:04.561Z,31.59
2018-08-03T08:01:04.572Z,31.85
2018-08-03T08:02:04.574Z,31.93
2018-08-03T08:03:04.590Z,31.89
2018-08-03T08:04:04.589Z,32.08
2018-08-03T08:05:04.610Z,32.08
2018-08-03T08:06:04.609Z,32.08
2018-08-03T08:07:04.706Z,32.12
2018-08-03T08:08:04.624Z,31.84
2018-08-03T08:09:04.629Z,31.89
2018-08-03T08:10:04.636Z,31.96
2018-08-03T08:11:04.650Z,32.23
2018-08-03T08:12:04.655Z,32.51
2018-08-03T08:13:04.665Z,32.87
2018-08-03T08:14:04.671Z,32.93
2018-08-03T08:15:04.716Z,33.00
2018-08-03T08:16:04.690Z,33.07
2018-08-03T08:17:04.786Z,33.14
2018-08-03T08:18:04.706Z,33.22
2018-08-03T08:19:04.714Z,33.32
2018-08-03T08:20:04.744Z,33.37
2018-08-03T08:21:04.734Z,33.30
2018-08-03T08:22:04.753Z,33.22
2018-08-03T08:23:04.755Z,33.30
2018-08-03T08:24:04.764Z,33.11
2018-08-03T08:25:04.773Z,33.09
2018-08-03T08:26:04.824Z,33.04
2018-08-03T08:27:04.790Z,33.14
2018-08-03T08:28:04.802Z,33.28
2018-08-03T08:29:04.819Z,33.83
2018-08-03T08:30:04.833Z,34.18
2018-08-03T08:31:04.842Z,34.61
2018-08-03T08:32:04.868Z,34.66
2018-08-03T08:33:04.860Z,34.74
2018-08-03T08:34:04.879Z,34.83
2018-08-03T08:35:04.879Z,34.86
2018-08-03T08:36:04.905Z,35.05
2018-08-03T08:37:04.902Z,35.12
2018-08-03T08:38:04.917Z,35.12
2018-08-03T08:39:04.914Z,35.19
2018-08-03T08:40:04.920Z,34.95
2018-08-03T08:41:04.929Z,34.95
2018-08-03T08:42:04.943Z,34.86
2018-08-03T08:43:04.953Z,34.57
2018-08-03T08:44:04.961Z,34.57
2018-08-03T08:45:04.976Z,34.83
2018-08-03T08:46:04.982Z,34.85
2018-08-03T08:47:04.998Z,35.23
2018-08-03T08:48:05.007Z,35.45
2018-08-03T08:49:05.063Z,35.46
2018-08-03T08:50:05.034Z,35.42
2018-08-03T08:51:05.051Z,35.37
2018-08-03T08:52:05.079Z,35.39
2018-08-03T08:53:05.069Z,35.66
2018-08-03T08:54:05.077Z,35.79
2018-08-03T08:55:05.086Z,35.78
2018-08-03T08:56:05.116Z,35.80
2018-08-03T08:57:05.123Z,35.79
2018-08-03T08:58:05.127Z,35.61
2018-08-03T08:59:05.132Z,35.44
2018-08-03T09:00:05.145Z,35.42
2018-08-03T09:01:05.169Z,35.63
2018-08-03T09:02:05.166Z,35.79
2018-08-03T09:03:05.176Z,35.68
2018-08-03T09:04:05.190Z,35.63
2018-08-03T09:05:05.218Z,35.45
2018-08-03T09:06:05.247Z,35.56
2018-08-03T09:07:05.249Z,35.95
2018-08-03T09:08:05.249Z,35.97
2018-08-03T09:09:05.248Z,36.14
2018-08-03T09:10:05.265Z,36.33
2018-08-03T09:11:05.280Z,36.67
2018-08-03T09:12:05.291Z,37.07
2018-08-03T09:13:05.358Z,37.45
2018-08-03T09:14:05.311Z,37.59
2018-08-03T09:15:05.324Z,37.63
2018-08-03T09:16:05.341Z,37.42
2018-08-03T09:17:05.360Z,37.18
2018-08-03T09:18:05.372Z,37.03
2018-08-03T09:19:05.388Z,36.83
2018-08-03T09:20:05.386Z,36.83
2018-08-03T09:21:05.414Z,36.88
2018-08-03T09:22:05.468Z,36.98
2018-08-03T09:23:05.420Z,36.95
2018-08-03T09:24:05.437Z,36.88
2018-08-03T09:25:05.452Z,36.80
2018-08-03T09:26:05.465Z,37.03
2018-08-03T09:27:05.530Z,37.03
2018-08-03T09:28:05.499Z,36.83
2018-08-03T09:29:05.505Z,36.80
2018-08-03T09:30:05.527Z,37.03
2018-08-03T09:31:05.555Z,37.06
2018-08-03T09:32:05.535Z,37.25
2018-08-03T09:33:05.559Z,37.21
2018-08-03T09:34:05.577Z,36.98
2018-08-03T09:35:05.583Z,36.79
2018-08-03T09:36:05.589Z,36.73
2018-08-03T09:37:05.613Z,37.07
2018-08-03T09:38:05.630Z,37.32
2018-08-03T09:39:05.629Z,37.29
2018-08-03T09:40:05.645Z,37.18
2018-08-03T09:41:05.678Z,37.13
2018-08-03T09:42:05.671Z,36.95
2018-08-03T09:43:05.698Z,37.23
2018-08-03T09:44:05.702Z,37.36
2018-08-03T09:45:05.713Z,37.15
2018-08-03T09:46:05.730Z,37.40
2018-08-03T09:47:05.741Z,37.67
2018-08-03T09:48:05.773Z,37.77
2018-08-03T09:49:05.777Z,38.26
2018-08-03T09:50:05.782Z,38.89
2018-08-03T09:51:05.810Z,39.11
2018-08-03T09:52:05.805Z,39.25
2018-08-03T09:53:05.818Z,39.51
2018-08-03T09:54:05.828Z,39.72
2018-08-03T09:55:05.892Z,39.74
2018-08-03T09:56:05.865Z,40.06
2018-08-03T09:57:05.880Z,40.11
2018-08-03T09:58:05.891Z,39.89
2018-08-03T09:59:05.906Z,39.60
2018-08-03T10:00:05.919Z,39.62
2018-08-03T10:01:05.937Z,39.33
2018-08-03T10:02:05.948Z,38.95
2018-08-03T10:03:05.956Z,38.45
2018-08-03T10:04:05.991Z,38.31
2018-08-03T10:05:05.990Z,38.96
2018-08-03T10:06:06.007Z,39.56
2018-08-03T10:07:06.024Z,40.14
2018-08-03T10:08:06.026Z,40.58
2018-08-03T10:09:06.040Z,40.80
2018-08-03T10:10:06.085Z,40.46
2018-08-03T10:11:06.067Z,40.08
2018-08-03T10:12:06.085Z,39.83
2018-08-03T10:13:06.099Z,39.36
2018-08-03T10:14:06.117Z,38.96
2018-08-03T10:15:06.130Z,38.58
2018-08-03T10:16:06.235Z,38.38
2018-08-03T10:17:06.173Z,38.26
2018-08-03T10:18:06.171Z,38.15
2018-08-03T10:19:06.181Z,37.87
2018-08-03T10:20:06.209Z,37.30
2018-08-03T10:21:06.212Z,37.21
2018-08-03T10:22:06.220Z,37.36
2018-08-03T10:23:06.233Z,37.32
2018-08-03T10:24:06.266Z,37.33
2018-08-03T10:25:06.269Z,37.36
2018-08-03T10:26:06.299Z,37.29
2018-08-03T10:27:06.304Z,37.26
2018-08-03T10:28:06.306Z,37.01
2018-08-03T10:29:06.394Z,36.86
2018-08-03T10:30:06.336Z,36.98
2018-08-03T10:31:06.381Z,37.03
2018-08-03T10:32:06.366Z,37.20
2018-08-03T10:33:06.394Z,37.47
2018-08-03T10:34:06.405Z,38.01
2018-08-03T10:35:06.464Z,38.73
2018-08-03T10:36:06.418Z,38.96
2018-08-03T10:37:06.441Z,39.04
2018-08-03T10:38:06.449Z,39.09
2018-08-03T10:39:06.473Z,39.04
2018-08-03T10:40:06.483Z,39.26
2018-08-03T10:41:06.501Z,39.15
2018-08-03T10:42:06.512Z,39.30
2018-08-03T10:43:06.532Z,39.71
2018-08-03T10:44:06.538Z,40.31
2018-08-03T10:45:06.583Z,40.66
2018-08-03T10:46:06.565Z,40.81
2018-08-03T10:47:06.663Z,41.04
2018-08-03T10:48:06.605Z,41.09
2018-08-03T10:49:06.612Z,41.26
2018-08-03T10:50:06.628Z,41.60
2018-08-03T10:51:06.644Z,42.09
2018-08-03T10:52:06.656Z,42.35
2018-08-03T10:53:06.673Z,42.60
2018-08-03T10:54:06.695Z,42.69
2018-08-03T10:55:06.700Z,42.78
2018-08-03T10:56:06.718Z,42.81
2018-08-03T10:57:06.728Z,42.41
2018-08-03T10:58:06.765Z,42.19
2018-08-03T10:59:06.770Z,42.09
2018-08-03T11:00:06.777Z,42.02
2018-08-03T11:01:06.791Z,42.19
2018-08-03T11:02:06.801Z,42.41
2018-08-03T11:03:06.824Z,42.58
2018-08-03T11:04:06.837Z,42.69
2018-08-03T11:05:06.847Z,42.84
2018-08-03T11:06:06.863Z,42.82
2018-08-03T11:07:06.882Z,42.94
2018-08-03T11:08:06.897Z,43.19
2018-08-03T11:09:06.911Z,43.28
2018-08-03T11:10:06.939Z,43.35
2018-08-03T11:11:06.941Z,43.39
2018-08-03T11:12:06.965Z,43.30
2018-08-03T11:13:06.973Z,42.92
2018-08-03T11:14:06.987Z,42.45
2018-08-03T11:15:07.011Z,42.14
2018-08-03T11:16:07.006Z,41.49
2018-08-03T11:17:07.036Z,41.33
2018-08-03T11:18:07.032Z,41.18
2018-08-03T11:19:07.078Z,41.22
2018-08-03T11:20:07.065Z,41.52
2018-08-03T11:21:07.087Z,41.62
2018-08-03T11:22:07.094Z,41.78
2018-08-03T11:23:07.110Z,41.80
2018-08-03T11:24:07.179Z,41.57
2018-08-03T11:25:07.139Z,41.31
2018-08-03T11:26:07.170Z,40.95
2018-08-03T11:27:07.165Z,40.92
2018-08-03T11:28:07.178Z,40.96
2018-08-03T11:29:07.189Z,41.33
2018-08-03T11:30:07.206Z,41.55
2018-08-03T11:31:07.217Z,41.85
2018-08-03T11:32:07.247Z,42.06
2018-08-03T11:33:07.250Z,41.98
2018-08-03T11:34:07.267Z,41.78
2018-08-03T11:35:07.276Z,41.63
2018-08-03T11:36:07.293Z,41.41
2018-08-03T11:37:07.306Z,41.41
2018-08-03T11:38:07.318Z,41.12
2018-08-03T11:39:07.329Z,40.53
2018-08-03T11:40:07.343Z,40.28
2018-08-03T11:41:07.360Z,39.92
2018-08-03T11:42:07.373Z,39.81
2018-08-03T11:43:07.383Z,40.08
2018-08-03T11:44:07.398Z,40.16
2018-08-03T11:45:07.418Z,40.27
2018-08-03T11:46:07.429Z,40.54
2018-08-03T11:47:07.454Z,40.82
2018-08-03T11:48:07.457Z,40.82
2018-08-03T11:49:07.470Z,40.85
2018-08-03T11:50:07.484Z,40.28
2018-08-03T11:51:07.515Z,40.20
2018-08-03T11:52:07.508Z,40.27
2018-08-03T11:53:07.528Z,40.63
2018-08-03T11:54:07.554Z,40.82
2018-08-03T11:55:07.550Z,40.75
2018-08-03T11:56:07.564Z,40.90
2018-08-03T11:57:07.627Z,41.12
2018-08-03T11:58:07.629Z,41.33
2018-08-03T11:59:07.625Z,41.40
2018-08-03T12:00:07.710Z,41.45
2018-08-03T12:01:07.639Z,41.26
2018-08-03T12:02:07.648Z,40.90
2018-08-03T12:03:07.663Z,41.02
2018-08-03T12:04:07.682Z,41.10
2018-08-03T12:05:07.686Z,40.49
2018-08-03T12:06:07.702Z,40.24
2018-08-03T12:07:07.714Z,40.05
2018-08-03T12:08:07.741Z,39.90
2018-08-03T12:09:07.748Z,39.90
2018-08-03T12:10:07.759Z,39.87
2018-08-03T12:11:07.773Z,40.11
2018-08-03T12:12:07.784Z,40.31
2018-08-03T12:13:07.794Z,40.68
2018-08-03T12:14:07.818Z,41.07
2018-08-03T12:15:07.826Z,41.10
2018-08-03T12:16:07.838Z,40.56
2018-08-03T12:17:07.883Z,39.97
2018-08-03T12:18:07.885Z,39.33
2018-08-03T12:19:07.880Z,39.18
2018-08-03T12:20:07.888Z,38.99
2018-08-03T12:21:07.914Z,38.74
2018-08-03T12:22:07.916Z,38.83
2018-08-03T12:23:07.936Z,39.12
2018-08-03T12:24:07.970Z,39.63
2018-08-03T12:25:07.956Z,39.60
2018-08-03T12:26:07.979Z,39.46
2018-08-03T12:27:07.985Z,39.26
2018-08-03T12:28:08.008Z,39.15
2018-08-03T12:29:08.018Z,39.26
2018-08-03T12:30:08.094Z,39.51
2018-08-03T12:31:08.064Z,39.62
2018-08-03T12:32:08.065Z,39.87
2018-08-03T12:33:08.064Z,40.21
2018-08-03T12:34:08.085Z,40.50
2018-08-03T12:35:08.090Z,40.90
2018-08-03T12:36:08.104Z,41.04
2018-08-03T12:37:08.150Z,41.12
2018-08-03T12:38:08.168Z,40.92
2018-08-03T12:39:08.194Z,41.10
2018-08-03T12:40:08.280Z,41.06
2018-08-03T12:41:08.203Z,41.14
2018-08-03T12:42:08.195Z,41.31
2018-08-03T12:43:08.231Z,41.26
2018-08-03T12:44:08.229Z,41.09
2018-08-03T12:45:08.278Z,41.07
2018-08-03T12:46:08.280Z,41.25
2018-08-03T12:47:08.340Z,41.36
2018-08-03T12:48:08.269Z,41.19
2018-08-03T12:49:08.276Z,40.88
2018-08-03T12:50:08.355Z,40.73
2018-08-03T12:51:08.331Z,40.91
2018-08-03T12:52:08.334Z,40.97
2018-08-03T12:53:08.335Z,40.97
2018-08-03T12:54:08.378Z,40.61
2018-08-03T12:55:08.367Z,40.61
2018-08-03T12:56:08.398Z,40.81
2018-08-03T12:57:08.413Z,40.88
2018-08-03T12:58:08.478Z,40.99
2018-08-03T12:59:08.433Z,40.78